South Ryegate, VT (05069)

1:56 PM EDT on September 30, 2014 (GMT -0400)
Northern Skies Observatory | Change Station
CLOSE
Current Station
Personal Weather Station
Location: Peacham, VT
Elevation: 1250 ft
Nearby Weather Stations

Elev 1250 ft 44.33 °N, 72.17 °W | Updated 1 minute ago

Mostly Cloudy
Mostly Cloudy
58.7 °F
Feels Like 58.7 °F
N
0.0
Wind Variable Wind from SSW
Gusts 1.0 mph

Today
High -- | Low -- °F
--% Chance of Precip.
Yesterday
High -- | Low -- °F
Precip. -- in
6:45 AM 6:31 PM
Waxing Crescent, 38% visible
Pressure 30.05 in
Visibility 10.0 miles
Clouds Overcast 1300 ft
Dew Point 54 °F
Humidity 86%
Rainfall 0.00 in
Snow Depth Not available.
UV 2 out of 12
Pollen 1.10 out of 12
Ozone Good
PM2.5 Good
Flu Activity Not available.
METAR KMPV 301751Z AUTO 16006KT 10SM OVC013 16/12 A3004 RMK AO2 SLP175 T01560122 10156 20133 58005

More Conditions Fewer Conditions

Pressure 30.05 in
Visibility 10.0 miles
Clouds Overcast 1300 ft
Dew Point 54 °F
Humidity 86%
Rainfall 0.00 in
Snow Depth Not available.
UV 2 out of 12
Pollen 1.10 out of 12
Ozone Good
PM2.5 Good
Flu Activity Not available.
METAR KMPV 301751Z AUTO 16006KT 10SM OVC013 16/12 A3004 RMK AO2 SLP175 T01560122 10156 20133 58005

More Conditions Fewer Conditions

10-Day Weather Forecast

Almanac

Astronomy

Sep. 30, 2014 Rise Set
Actual Time 6:45 AM EDT 6:31 PM EDT
Civil Twilight 6:16 AM EDT 6:59 PM EDT
Nautical Twilight 5:42 AM EDT 7:33 PM EDT
Astronomical Twilight 5:08 AM EDT 8:07 PM EDT
Moon 1:00 PM EDT 10:48 PM EDT
Length of Visible Light 12h 43m
Length of Day
11h 46m
Tomorrow will be 3m 1s shorter.
Waxing Crescent, 38% of the Moon is Illuminated
Today
Waxing Crescent
Oct 1
First Quarter
Oct 8
Full
Oct 15
Last Quarter
Oct 23
New

Today's Extremes

State Highs State Lows

Community

WunderPhotos

Upload Photos

1,757,693 photos uploaded!

Nearby

Air Quality

  Air Quality AQ Index Pollutant
Yesterday Good
PM2.5
Yesterday Good
OZONE
Current Good
PM2.5
Current Good
OZONE
Tuesday Good
PM2.5
Tuesday Good
OZONE

Snow Depth

Station Depth Elevation
No new snow has been reported.

Earthquake Activity

City Distance Mag. Time & Date
No recent earthquake activity has been reported nearby.
Minimum magnitude displayed is 2.5.

Coastal Water Temperatures

Place Temperature
No Stations Reporting

Nearby Weather Stations